createdAt,value
2018-04-16T00:00:58.531Z,933.26
2018-04-16T00:02:30.040Z,933.26
2018-04-16T00:04:01.853Z,933.22
2018-04-16T00:05:33.665Z,933.23
2018-04-16T00:07:05.479Z,933.19
2018-04-16T00:08:37.291Z,933.26
2018-04-16T00:10:09.104Z,933.13
2018-04-16T00:11:40.917Z,933.17
2018-04-16T00:13:12.929Z,933.18
2018-04-16T00:14:44.542Z,933.22
2018-04-16T00:16:16.353Z,933.16
2018-04-16T00:17:48.166Z,933.24
2018-04-16T00:19:19.978Z,933.23
2018-04-16T00:20:51.791Z,933.21
2018-04-16T00:22:23.603Z,933.21
2018-04-16T00:23:55.415Z,933.19
2018-04-16T00:25:27.228Z,933.18
2018-04-16T00:28:30.853Z,933.16
2018-04-16T00:30:02.665Z,933.18
2018-04-16T00:31:34.577Z,933.16
2018-04-16T00:33:06.290Z,933.18
2018-04-16T00:34:38.103Z,933.17
2018-04-16T00:36:09.915Z,933.17
2018-04-16T00:37:41.728Z,933.17
2018-04-16T00:39:13.540Z,933.15
2018-04-16T00:40:45.352Z,933.15
2018-04-16T00:42:17.177Z,933.12
2018-04-16T00:43:48.980Z,933.16
2018-04-16T00:45:20.792Z,933.20
2018-04-16T00:46:52.606Z,933.12
2018-04-16T00:48:24.420Z,933.11
2018-04-16T00:49:56.331Z,933.12
2018-04-16T00:51:28.043Z,933.10
2018-04-16T00:52:59.856Z,933.12
2018-04-16T00:54:31.669Z,933.14
2018-04-16T00:56:03.582Z,933.13
2018-04-16T00:57:35.294Z,933.08
2018-04-16T00:59:07.108Z,933.09
2018-04-16T01:00:38.921Z,933.12
2018-04-16T01:02:10.734Z,933.11
2018-04-16T01:03:42.547Z,933.09
2018-04-16T01:05:14.363Z,933.07
2018-04-16T01:06:46.171Z,933.06
2018-04-16T01:08:18.084Z,933.13
2018-04-16T01:09:49.797Z,933.13
2018-04-16T01:11:21.609Z,933.14
2018-04-16T01:12:53.423Z,933.15
2018-04-16T01:14:25.236Z,933.14
2018-04-16T01:15:57.051Z,933.15
2018-04-16T01:17:28.862Z,933.12
2018-04-16T01:20:32.487Z,933.05
2018-04-16T01:22:04.304Z,933.05
2018-04-16T01:23:36.113Z,933.08
2018-04-16T01:25:07.925Z,933.05
2018-04-16T01:26:39.938Z,933.06
2018-04-16T01:28:11.549Z,933.04
2018-04-16T01:29:43.362Z,933.13
2018-04-16T01:31:15.176Z,933.12
2018-04-16T01:32:46.987Z,933.05
2018-04-16T01:34:18.800Z,933.02
2018-04-16T01:35:50.612Z,933.10
2018-04-16T01:37:22.425Z,933.14
2018-04-16T01:38:54.239Z,933.09
2018-04-16T01:40:26.048Z,933.08
2018-04-16T01:41:57.862Z,933.03
2018-04-16T01:43:29.673Z,933.03
2018-04-16T01:45:01.586Z,933.07
2018-04-16T01:46:33.302Z,933.00
2018-04-16T01:48:05.110Z,932.95
2018-04-16T01:49:36.921Z,933.07
2018-04-16T01:51:08.733Z,933.06
2018-04-16T01:52:40.546Z,933.00
2018-04-16T01:54:12.357Z,932.94
2018-04-16T01:55:44.173Z,932.97
2018-04-16T01:57:16.081Z,932.89
2018-04-16T01:58:47.796Z,932.87
2018-04-16T02:00:19.605Z,932.91
2018-04-16T02:01:51.416Z,932.89
2018-04-16T02:03:23.330Z,932.94
2018-04-16T02:04:55.040Z,933.00
2018-04-16T02:06:26.864Z,932.99
2018-04-16T02:07:58.664Z,932.98
2018-04-16T02:09:30.476Z,932.97
2018-04-16T02:11:02.289Z,932.98
2018-04-16T02:12:34.099Z,932.99
2018-04-16T02:14:05.912Z,933.01
2018-04-16T02:15:37.724Z,933.04
2018-04-16T02:17:09.807Z,932.99
2018-04-16T02:18:41.348Z,932.88
2018-04-16T02:20:13.160Z,932.92
2018-04-16T02:21:45.074Z,932.88
2018-04-16T02:23:16.785Z,932.83
2018-04-16T02:24:48.596Z,932.87
2018-04-16T02:26:20.409Z,932.88
2018-04-16T02:27:52.322Z,932.91
2018-04-16T02:29:24.045Z,932.89
2018-04-16T02:30:55.846Z,932.87
2018-04-16T02:32:27.658Z,932.89
2018-04-16T02:33:59.471Z,932.82
2018-04-16T02:35:31.283Z,932.84
2018-04-16T02:37:03.097Z,932.83
2018-04-16T02:38:34.908Z,932.77
2018-04-16T02:40:06.822Z,932.83
2018-04-16T02:41:38.552Z,932.76
2018-04-16T02:43:10.346Z,932.76
2018-04-16T02:44:42.160Z,932.78
2018-04-16T02:46:13.971Z,932.83
2018-04-16T02:47:45.983Z,932.78
2018-04-16T02:49:17.598Z,932.80
2018-04-16T02:50:49.407Z,932.82
2018-04-16T02:52:21.219Z,932.86
2018-04-16T02:53:53.031Z,932.81
2018-04-16T02:55:24.844Z,932.82
2018-04-16T02:56:56.655Z,932.84
2018-04-16T02:58:28.668Z,932.88
2018-04-16T03:00:00.279Z,932.80
2018-04-16T03:01:32.091Z,932.75
2018-04-16T03:03:03.904Z,932.77
2018-04-16T03:04:35.722Z,932.70
2018-04-16T03:06:07.528Z,932.79
2018-04-16T03:07:39.341Z,932.81
2018-04-16T03:09:11.153Z,932.87
2018-04-16T03:10:42.966Z,932.78
2018-04-16T03:12:14.778Z,932.75
2018-04-16T03:13:46.941Z,932.75
2018-04-16T03:15:18.402Z,932.74
2018-04-16T03:16:50.314Z,932.65
2018-04-16T03:18:22.025Z,932.64
2018-04-16T03:19:53.839Z,932.65
2018-04-16T03:21:25.651Z,932.68
2018-04-16T03:22:57.463Z,932.63
2018-04-16T03:24:29.275Z,932.67
2018-04-16T03:26:01.088Z,932.66
2018-04-16T03:27:32.899Z,932.57
2018-04-16T03:29:04.811Z,932.57
2018-04-16T03:30:36.523Z,932.61
2018-04-16T03:32:08.336Z,932.57
2018-04-16T03:33:40.150Z,932.58
2018-04-16T03:35:12.060Z,932.61
2018-04-16T03:36:43.772Z,932.56
2018-04-16T03:38:15.583Z,932.59
2018-04-16T03:39:47.395Z,932.59
2018-04-16T03:41:19.208Z,932.56
2018-04-16T03:42:51.019Z,932.53
2018-04-16T03:44:22.831Z,932.51
2018-04-16T03:45:54.642Z,932.49
2018-04-16T03:47:26.455Z,932.47
2018-04-16T03:48:58.571Z,932.48
2018-04-16T03:50:30.079Z,932.52
2018-04-16T03:52:01.894Z,932.47
2018-04-16T03:53:33.803Z,932.46
2018-04-16T03:55:05.519Z,932.49
2018-04-16T03:56:37.327Z,932.46
2018-04-16T03:58:09.138Z,932.50
2018-04-16T03:59:41.051Z,932.43
2018-04-16T04:01:12.790Z,932.40
2018-04-16T04:02:44.574Z,932.37
2018-04-16T04:04:16.386Z,932.41
2018-04-16T04:07:20.011Z,932.37
2018-04-16T04:08:51.823Z,932.35
2018-04-16T04:10:23.634Z,932.43
2018-04-16T04:11:55.451Z,932.30
2018-04-16T04:13:27.359Z,932.28
2018-04-16T04:16:30.882Z,932.21
2018-04-16T04:18:02.696Z,932.19
2018-04-16T04:19:34.508Z,932.13
2018-04-16T04:21:06.320Z,932.10
2018-04-16T04:22:38.133Z,932.11
2018-04-16T04:24:09.944Z,932.17
2018-04-16T04:25:41.761Z,932.07
2018-04-16T04:27:13.569Z,932.09
2018-04-16T04:28:45.382Z,932.06
2018-04-16T04:30:17.193Z,932.01
2018-04-16T04:31:49.106Z,932.01
2018-04-16T04:33:20.818Z,932.04
2018-04-16T04:34:52.629Z,932.00
2018-04-16T04:36:24.441Z,932.04
2018-04-16T04:37:56.405Z,931.94
2018-04-16T04:39:28.067Z,931.89
2018-04-16T04:42:31.690Z,931.85
2018-04-16T04:44:03.503Z,931.82
2018-04-16T04:45:35.316Z,931.85
2018-04-16T04:47:07.127Z,931.84
2018-04-16T04:48:38.940Z,931.79
2018-04-16T04:50:10.852Z,931.76
2018-04-16T04:51:42.563Z,931.73
2018-04-16T04:53:14.375Z,931.75
2018-04-16T04:54:46.188Z,931.75
2018-04-16T04:56:18.252Z,931.76
2018-04-16T04:57:49.811Z,931.78
2018-04-16T04:59:21.622Z,931.81
2018-04-16T05:00:53.434Z,931.80
2018-04-16T05:02:25.247Z,931.80
2018-04-16T05:03:57.059Z,931.84
2018-04-16T05:05:28.870Z,931.82
2018-04-16T05:07:00.683Z,931.78
2018-04-16T05:08:32.695Z,931.78
2018-04-16T05:10:04.307Z,931.76
2018-04-16T05:11:46.708Z,931.59
2018-04-16T05:13:17.712Z,931.64
2018-04-16T05:14:49.523Z,931.63
2018-04-16T05:16:21.335Z,931.57
2018-04-16T05:17:53.153Z,931.54
2018-04-16T05:19:24.964Z,931.56
2018-04-16T05:20:56.771Z,931.52
2018-04-16T05:22:28.583Z,931.51
2018-04-16T05:24:00.395Z,931.46
2018-04-16T05:25:32.207Z,931.40
2018-04-16T05:27:04.119Z,931.39
2018-04-16T05:28:35.831Z,931.41
2018-04-16T05:30:07.646Z,931.36
2018-04-16T05:31:39.456Z,931.36
2018-04-16T05:33:11.369Z,931.43
2018-04-16T05:34:43.080Z,931.37
2018-04-16T05:36:14.892Z,931.37
2018-04-16T05:37:47.225Z,931.34
2018-04-16T05:39:18.669Z,931.38
2018-04-16T05:40:50.329Z,931.34
2018-04-16T05:42:22.141Z,931.36
2018-04-16T05:43:53.953Z,931.32
2018-04-16T05:45:25.864Z,931.26
2018-04-16T05:46:57.577Z,931.30
2018-04-16T05:48:29.389Z,931.32
2018-04-16T05:50:01.202Z,931.39
2018-04-16T05:51:33.013Z,931.46
2018-04-16T05:53:04.825Z,931.38
2018-04-16T05:54:36.637Z,931.42
2018-04-16T05:56:08.449Z,931.38
2018-04-16T05:57:40.512Z,931.42
2018-04-16T05:59:12.073Z,931.34
2018-04-16T06:00:43.885Z,931.39
2018-04-16T06:02:15.697Z,931.33
2018-04-16T06:03:47.709Z,931.39
2018-04-16T06:05:19.322Z,931.42
2018-04-16T06:06:51.133Z,931.47
2018-04-16T06:08:22.944Z,931.43
2018-04-16T06:09:54.755Z,931.50
2018-04-16T06:11:26.568Z,931.43
2018-04-16T06:12:58.685Z,931.49
2018-04-16T06:14:30.191Z,931.40
2018-04-16T06:16:02.005Z,931.47
2018-04-16T06:17:33.815Z,931.42
2018-04-16T06:19:05.655Z,931.34
2018-04-16T06:20:37.440Z,931.34
2018-04-16T06:22:09.352Z,931.30
2018-04-16T06:23:41.064Z,931.27
2018-04-16T06:25:12.877Z,931.29
2018-04-16T06:26:44.689Z,931.20
2018-04-16T06:28:16.753Z,931.24
2018-04-16T06:29:48.317Z,931.17
2018-04-16T06:31:20.126Z,931.19
2018-04-16T06:32:51.938Z,931.16
2018-04-16T06:34:23.850Z,931.17
2018-04-16T06:35:55.562Z,931.15
2018-04-16T06:37:27.374Z,931.14
2018-04-16T06:38:59.186Z,931.09
2018-04-16T06:40:31.249Z,931.08
2018-04-16T06:42:02.812Z,931.05
2018-04-16T06:43:34.624Z,931.02
2018-04-16T06:45:06.436Z,931.07
2018-04-16T06:46:38.247Z,930.99
2018-04-16T06:48:10.060Z,930.98
2018-04-16T06:49:41.876Z,930.97
2018-04-16T06:51:13.685Z,930.95
2018-04-16T06:52:45.496Z,930.97
2018-04-16T06:54:17.308Z,930.95
2018-04-16T06:55:49.121Z,931.04
2018-04-16T06:57:20.932Z,930.98
2018-04-16T06:58:53.100Z,930.98
2018-04-16T07:00:24.558Z,931.07
2018-04-16T07:01:56.426Z,931.09
2018-04-16T07:03:28.185Z,931.05
2018-04-16T07:06:31.913Z,931.10
2018-04-16T07:08:03.619Z,931.08
2018-04-16T07:09:35.434Z,931.05
2018-04-16T07:11:07.241Z,931.01
2018-04-16T07:12:39.059Z,931.08
2018-04-16T07:14:10.865Z,931.07
2018-04-16T07:15:42.679Z,931.10
2018-04-16T07:17:14.489Z,931.10
2018-04-16T07:18:46.401Z,931.12
2018-04-16T07:20:18.113Z,931.17
2018-04-16T07:21:49.927Z,931.12
2018-04-16T07:23:21.737Z,931.22
2018-04-16T07:24:53.551Z,931.24
2018-04-16T07:26:25.361Z,931.27
2018-04-16T07:27:57.173Z,931.17
2018-04-16T07:29:28.984Z,931.27
2018-04-16T07:32:32.612Z,931.25
2018-04-16T07:34:04.419Z,931.28
2018-04-16T07:35:36.231Z,931.32
2018-04-16T07:37:08.043Z,931.24
2018-04-16T07:38:40.105Z,931.26
2018-04-16T07:40:11.668Z,931.28
2018-04-16T07:41:43.479Z,931.29
2018-04-16T07:43:15.291Z,931.27
2018-04-16T07:44:47.204Z,931.17
2018-04-16T07:46:18.915Z,931.22
2018-04-16T07:47:50.727Z,931.18
2018-04-16T07:49:22.541Z,931.20
2018-04-16T07:50:54.353Z,931.21
2018-04-16T07:52:26.163Z,931.27
2018-04-16T07:53:57.982Z,931.32
2018-04-16T07:55:29.787Z,931.30
2018-04-16T07:57:01.701Z,931.32
2018-04-16T07:58:33.413Z,931.34
2018-04-16T08:00:05.223Z,931.33
2018-04-16T08:01:37.035Z,931.39
2018-04-16T08:03:08.847Z,931.35
2018-04-16T08:04:40.663Z,931.36
2018-04-16T08:06:12.470Z,931.34
2018-04-16T08:07:44.285Z,931.43
2018-04-16T08:09:16.095Z,931.41
2018-04-16T08:10:47.910Z,931.44
2018-04-16T08:12:19.719Z,931.47
2018-04-16T08:13:51.530Z,931.48
2018-04-16T08:15:23.442Z,931.47
2018-04-16T08:16:55.155Z,931.48
2018-04-16T08:18:26.966Z,931.51
2018-04-16T08:19:58.779Z,931.49
2018-04-16T08:21:30.591Z,931.57
2018-04-16T08:23:02.413Z,931.56
2018-04-16T08:24:34.215Z,931.63
2018-04-16T08:26:06.030Z,931.65
2018-04-16T08:27:37.838Z,931.63
2018-04-16T08:29:09.650Z,931.64
2018-04-16T08:30:41.463Z,931.62
2018-04-16T08:32:13.274Z,931.64
2018-04-16T08:33:45.187Z,931.63
2018-04-16T08:35:16.971Z,931.65
2018-04-16T08:36:48.782Z,931.70
2018-04-16T08:38:20.594Z,931.72
2018-04-16T08:39:52.507Z,931.66
2018-04-16T08:41:24.146Z,931.68
2018-04-16T08:42:55.956Z,931.66
2018-04-16T08:44:27.772Z,931.73
2018-04-16T08:45:59.581Z,931.75
2018-04-16T08:47:31.394Z,931.76
2018-04-16T08:49:03.206Z,931.77
2018-04-16T08:50:35.019Z,931.82
2018-04-16T08:52:06.929Z,931.84
2018-04-16T08:53:38.644Z,931.84
2018-04-16T08:55:10.453Z,931.83
2018-04-16T08:56:42.264Z,931.90
2018-04-16T08:58:14.076Z,931.86
2018-04-16T08:59:45.925Z,931.88
2018-04-16T09:01:17.700Z,931.94
2018-04-16T09:02:49.512Z,931.88
2018-04-16T09:04:21.574Z,931.86
2018-04-16T09:05:53.133Z,931.91
2018-04-16T09:07:24.947Z,931.83
2018-04-16T09:08:56.758Z,931.82
2018-04-16T09:10:28.773Z,931.82
2018-04-16T09:12:00.386Z,931.94
2018-04-16T09:13:32.193Z,931.94
2018-04-16T09:15:04.005Z,931.92
2018-04-16T09:16:35.816Z,931.97
2018-04-16T09:18:07.627Z,931.97
2018-04-16T09:19:39.439Z,932.00
2018-04-16T09:21:11.251Z,932.02
2018-04-16T09:22:43.065Z,932.00
2018-04-16T09:24:14.874Z,932.04
2018-04-16T09:27:18.704Z,932.04
2018-04-16T09:28:50.414Z,932.05
2018-04-16T09:30:22.121Z,932.08
2018-04-16T09:31:53.931Z,932.11
2018-04-16T09:33:25.744Z,932.20
2018-04-16T09:34:57.807Z,932.20
2018-04-16T09:36:29.366Z,932.21
2018-04-16T09:38:01.196Z,932.28
2018-04-16T09:39:33.046Z,932.29
2018-04-16T09:41:04.903Z,932.36
2018-04-16T09:42:36.818Z,932.36
2018-04-16T09:44:09.151Z,932.34
2018-04-16T09:45:40.240Z,932.36
2018-04-16T09:47:12.757Z,932.36
2018-04-16T09:48:43.863Z,932.41
2018-04-16T09:51:47.690Z,932.39
2018-04-16T09:53:19.301Z,932.45
2018-04-16T09:54:51.109Z,932.44
2018-04-16T09:56:22.921Z,932.53
2018-04-16T09:57:54.734Z,932.52
2018-04-16T09:59:26.546Z,932.53
2018-04-16T10:02:30.169Z,932.50
2018-04-16T10:04:01.983Z,932.53
2018-04-16T10:05:33.893Z,932.57
2018-04-16T10:07:05.605Z,932.58
2018-04-16T10:08:37.417Z,932.61
2018-04-16T10:10:09.230Z,932.64
2018-04-16T10:11:41.141Z,932.77
2018-04-16T10:13:12.853Z,932.78
2018-04-16T10:14:44.671Z,932.79
2018-04-16T10:16:16.782Z,932.77
2018-04-16T10:17:48.492Z,932.83
2018-04-16T10:20:51.918Z,932.85
2018-04-16T10:22:24.032Z,932.91
2018-04-16T10:25:27.754Z,932.90
2018-04-16T10:26:59.165Z,932.97
2018-04-16T10:28:31.179Z,932.96
2018-04-16T10:30:03.097Z,932.90
2018-04-16T10:31:34.603Z,932.99
2018-04-16T10:34:38.230Z,933.01
2018-04-16T10:36:10.043Z,933.05
2018-04-16T10:37:42.165Z,933.09
2018-04-16T10:39:13.701Z,933.14
2018-04-16T10:40:45.489Z,933.15
2018-04-16T10:42:17.312Z,933.19
2018-04-16T10:43:49.707Z,933.27
2018-04-16T10:46:52.743Z,933.32
2018-04-16T10:48:24.567Z,933.20
2018-04-16T10:49:56.372Z,933.22
2018-04-16T10:51:28.227Z,933.29
2018-04-16T10:53:00.069Z,933.34
2018-04-16T10:56:03.708Z,933.31
2018-04-16T10:57:35.766Z,933.36
2018-04-16T10:59:07.305Z,933.32
2018-04-16T11:00:39.125Z,933.44
2018-04-16T11:03:42.816Z,933.45
2018-04-16T11:05:15.052Z,933.42
2018-04-16T11:06:46.349Z,933.49
2018-04-16T11:08:18.165Z,933.41
2018-04-16T11:09:50.217Z,933.49
2018-04-16T11:11:22.143Z,933.60
2018-04-16T11:12:53.648Z,933.63
2018-04-16T11:14:25.509Z,933.50
2018-04-16T11:15:57.244Z,933.55
2018-04-16T11:17:29.177Z,933.53
2018-04-16T11:19:00.874Z,933.53
2018-04-16T11:20:32.698Z,933.55
2018-04-16T11:22:04.634Z,933.60
2018-04-16T11:23:36.371Z,933.67
2018-04-16T11:25:08.213Z,933.74
2018-04-16T11:28:11.794Z,933.88
2018-04-16T11:29:43.582Z,933.83
2018-04-16T11:31:15.396Z,933.85
2018-04-16T11:32:47.222Z,933.82
2018-04-16T11:34:19.080Z,933.74
2018-04-16T11:38:54.476Z,933.82
2018-04-16T11:40:26.466Z,933.74
2018-04-16T11:41:58.107Z,933.79
2018-04-16T11:45:01.794Z,933.86
2018-04-16T11:46:33.756Z,933.95
2018-04-16T11:48:05.370Z,934.09
2018-04-16T11:49:37.185Z,934.13
2018-04-16T11:51:09.047Z,934.16
2018-04-16T11:52:40.817Z,934.04
2018-04-16T11:54:12.631Z,934.20
2018-04-16T11:55:44.446Z,934.26
2018-04-16T11:57:16.262Z,934.27
2018-04-16T11:58:48.177Z,934.27
2018-04-16T12:00:19.901Z,934.38
2018-04-16T12:01:51.744Z,934.22
2018-04-16T12:03:23.880Z,934.22
2018-04-16T12:04:55.643Z,934.45
2018-04-16T12:06:27.159Z,934.33
2018-04-16T12:07:59.175Z,934.25
2018-04-16T12:11:02.913Z,934.22
2018-04-16T12:12:34.530Z,934.17
2018-04-16T12:14:06.235Z,934.20
2018-04-16T12:15:38.054Z,934.18
2018-04-16T12:17:09.967Z,934.23
2018-04-16T12:18:41.682Z,934.22
2018-04-16T12:20:13.515Z,934.25
2018-04-16T12:21:45.617Z,934.22
2018-04-16T12:23:17.126Z,934.37
2018-04-16T12:24:48.950Z,934.36
2018-04-16T12:26:20.760Z,934.41
2018-04-16T12:27:52.612Z,934.54
2018-04-16T12:29:25.139Z,934.61
2018-04-16T12:30:56.263Z,934.55
2018-04-16T12:32:28.016Z,934.69
2018-04-16T12:33:59.821Z,934.76
2018-04-16T12:35:31.735Z,934.69
2018-04-16T12:37:03.509Z,934.74
2018-04-16T12:38:35.569Z,934.68
2018-04-16T12:40:07.079Z,934.68
2018-04-16T12:44:42.521Z,934.75
2018-04-16T12:46:14.762Z,934.87
2018-04-16T12:47:46.387Z,934.95
2018-04-16T12:49:17.970Z,934.93
2018-04-16T12:50:50.275Z,934.80
2018-04-16T12:52:21.602Z,934.81
2018-04-16T12:55:25.240Z,934.80
2018-04-16T12:56:57.058Z,934.65
2018-04-16T12:58:28.873Z,934.71
2018-04-16T13:00:00.709Z,934.69
2018-04-16T13:03:04.782Z,934.67
2018-04-16T13:06:07.968Z,934.65
2018-04-16T13:07:39.788Z,934.59
2018-04-16T13:09:11.938Z,934.66
2018-04-16T13:10:43.687Z,934.65
2018-04-16T13:12:17.499Z,934.65
2018-04-16T13:13:48.788Z,934.73
2018-04-16T13:15:18.914Z,934.83
2018-04-16T13:18:23.085Z,934.70
2018-04-16T13:19:54.602Z,934.84
2018-04-16T13:21:26.532Z,934.98
2018-04-16T13:26:01.632Z,935.10
2018-04-16T13:27:33.864Z,934.98
2018-04-16T13:29:05.553Z,934.87
2018-04-16T13:30:37.110Z,934.68
2018-04-16T13:32:09.190Z,934.59
2018-04-16T13:33:40.705Z,934.60
2018-04-16T13:35:12.528Z,934.59
2018-04-16T13:36:44.348Z,934.60
2018-04-16T13:39:47.976Z,934.74
2018-04-16T13:41:19.997Z,934.84
2018-04-16T13:42:51.612Z,934.81
2018-04-16T13:44:23.633Z,934.78
2018-04-16T13:47:27.473Z,934.76
2018-04-16T13:48:59.407Z,934.61
2018-04-16T13:50:31.267Z,934.72
2018-04-16T13:52:02.523Z,934.71
2018-04-16T13:53:34.347Z,934.64
2018-04-16T13:55:06.161Z,934.52
2018-04-16T13:56:37.984Z,934.56
2018-04-16T13:58:10.037Z,934.51
2018-04-16T13:59:41.688Z,934.51
2018-04-16T14:01:13.435Z,934.49
2018-04-16T14:02:45.253Z,934.45
2018-04-16T14:04:17.071Z,934.50
2018-04-16T14:05:48.990Z,934.60
2018-04-16T14:07:20.910Z,934.63
2018-04-16T14:08:52.832Z,934.54
2018-04-16T14:10:24.346Z,934.54
2018-04-16T14:14:59.801Z,934.74
2018-04-16T14:16:31.619Z,934.62
2018-04-16T14:18:03.442Z,934.59
2018-04-16T14:19:35.257Z,934.47
2018-04-16T14:21:08.086Z,934.43
2018-04-16T14:22:38.926Z,934.29
2018-04-16T14:24:10.713Z,934.44
2018-04-16T14:25:42.531Z,934.25
2018-04-16T14:27:14.548Z,934.37
2018-04-16T14:28:46.165Z,934.26
2018-04-16T14:30:17.983Z,934.25
2018-04-16T14:33:21.620Z,934.36
2018-04-16T14:34:53.642Z,934.17
2018-04-16T14:36:25.381Z,934.19
2018-04-16T14:37:57.121Z,934.13
2018-04-16T14:39:29.001Z,934.13
2018-04-16T14:41:00.909Z,934.21
2018-04-16T14:42:32.525Z,934.07
2018-04-16T14:44:04.346Z,934.10
2018-04-16T14:45:36.161Z,934.05
2018-04-16T14:47:08.201Z,933.92
2018-04-16T14:50:11.623Z,933.99
2018-04-16T14:51:43.738Z,934.02
2018-04-16T14:54:47.085Z,934.01
2018-04-16T14:56:18.913Z,933.89
2018-04-16T14:57:50.836Z,933.92
2018-04-16T14:59:22.826Z,934.00
2018-04-16T15:00:54.377Z,933.96
2018-04-16T15:02:26.192Z,934.02
2018-04-16T15:03:58.010Z,933.92
2018-04-16T15:08:33.755Z,933.80
2018-04-16T15:10:05.268Z,933.60
2018-04-16T15:11:37.213Z,933.66
2018-04-16T15:13:09.269Z,933.77
2018-04-16T15:14:40.927Z,933.60
2018-04-16T15:16:12.643Z,933.79
2018-04-16T15:17:44.363Z,934.09
2018-04-16T15:19:16.342Z,933.99
2018-04-16T15:20:48.201Z,933.92
2018-04-16T15:22:19.930Z,934.01
2018-04-16T15:23:51.654Z,934.07
2018-04-16T15:25:23.519Z,933.97
2018-04-16T15:26:55.327Z,934.00
2018-04-16T15:28:27.098Z,933.72
2018-04-16T15:29:58.923Z,933.75
2018-04-16T15:31:30.742Z,933.76
2018-04-16T15:33:03.082Z,933.50
2018-04-16T15:34:34.923Z,933.51
2018-04-16T15:36:06.235Z,933.39
2018-04-16T15:37:38.088Z,933.32
2018-04-16T15:39:10.361Z,933.46
2018-04-16T15:40:41.922Z,933.40
2018-04-16T15:42:14.027Z,933.52
2018-04-16T15:43:45.605Z,933.58
2018-04-16T15:45:17.320Z,933.44
2018-04-16T15:46:48.944Z,933.51
2018-04-16T15:48:20.765Z,933.58
2018-04-16T15:49:52.576Z,933.53
2018-04-16T15:52:56.487Z,933.18
2018-04-16T15:54:28.035Z,933.18
2018-04-16T15:55:59.895Z,933.16
2018-04-16T16:00:35.313Z,933.02
2018-04-16T16:02:07.369Z,933.01
2018-04-16T16:03:39.254Z,933.09
2018-04-16T16:05:11.535Z,933.34
2018-04-16T16:08:14.758Z,933.11
2018-04-16T16:09:46.221Z,933.16
2018-04-16T16:12:49.856Z,932.95
2018-04-16T16:14:21.676Z,933.01
2018-04-16T16:15:53.489Z,932.99
2018-04-16T16:17:25.306Z,933.01
2018-04-16T16:18:57.123Z,932.91
2018-04-16T16:20:28.943Z,932.89
2018-04-16T16:23:32.774Z,932.96
2018-04-16T16:25:04.692Z,932.92
2018-04-16T16:28:08.239Z,932.98
2018-04-16T16:29:39.839Z,932.97
2018-04-16T16:31:11.740Z,932.93
2018-04-16T16:32:43.978Z,933.01
2018-04-16T16:34:15.283Z,933.04
2018-04-16T16:35:47.401Z,933.06
2018-04-16T16:37:19.114Z,933.11
2018-04-16T16:38:50.776Z,933.22
2018-04-16T16:40:22.854Z,933.36
2018-04-16T16:41:54.870Z,933.24
2018-04-16T16:43:26.169Z,933.09
2018-04-16T16:44:57.984Z,933.10
2018-04-16T16:46:29.927Z,933.27
2018-04-16T16:48:01.615Z,933.31
2018-04-16T16:49:33.432Z,933.07
2018-04-16T16:51:05.365Z,933.05
2018-04-16T16:54:08.883Z,933.02
2018-04-16T16:55:40.998Z,933.04
2018-04-16T16:57:12.679Z,933.01
2018-04-16T16:58:45.424Z,932.97
2018-04-16T17:00:16.232Z,932.86
2018-04-16T17:01:47.968Z,932.90
2018-04-16T17:03:20.301Z,932.68
2018-04-16T17:04:51.801Z,932.65
2018-04-16T17:06:23.527Z,932.71
2018-04-16T17:07:55.255Z,932.65
2018-04-16T17:09:27.050Z,932.53
2018-04-16T17:10:59.171Z,932.57
2018-04-16T17:12:30.755Z,932.66
2018-04-16T17:14:02.562Z,932.66
2018-04-16T17:15:34.323Z,932.64
2018-04-16T17:18:37.955Z,932.78
2018-04-16T17:20:09.849Z,932.79
2018-04-16T17:23:13.905Z,932.62
2018-04-16T17:24:45.322Z,932.62
2018-04-16T17:27:49.050Z,932.58
2018-04-16T17:29:20.861Z,932.66
2018-04-16T17:30:52.784Z,932.63
2018-04-16T17:32:24.296Z,932.68
2018-04-16T17:33:56.226Z,932.74
2018-04-16T17:35:28.233Z,932.64
2018-04-16T17:38:31.566Z,932.74
2018-04-16T17:40:03.383Z,932.69
2018-04-16T17:43:07.221Z,932.66
2018-04-16T17:44:38.986Z,932.52
2018-04-16T17:46:10.877Z,932.55
2018-04-16T17:47:42.470Z,932.55
2018-04-16T17:49:14.469Z,932.52
2018-04-16T17:50:46.107Z,932.53
2018-04-16T17:52:17.959Z,932.50
2018-04-16T17:53:49.752Z,932.47
2018-04-16T17:55:21.566Z,932.44
2018-04-16T17:56:53.585Z,932.49
2018-04-16T17:58:25.240Z,932.49
2018-04-16T17:59:57.024Z,932.46
2018-04-16T18:01:28.882Z,932.52
2018-04-16T18:03:01.069Z,932.50
2018-04-16T18:04:33.054Z,932.38
2018-04-16T18:06:04.312Z,932.46
2018-04-16T18:07:36.119Z,932.44
2018-04-16T18:09:08.375Z,932.37
2018-04-16T18:10:39.956Z,932.32
2018-04-16T18:12:11.579Z,932.10
2018-04-16T18:15:15.220Z,932.27
2018-04-16T18:16:47.238Z,932.29
2018-04-16T18:19:50.673Z,932.32
2018-04-16T18:21:22.730Z,932.34
2018-04-16T18:22:54.865Z,932.30
2018-04-16T18:24:26.340Z,932.24
2018-04-16T18:25:58.092Z,932.27
2018-04-16T18:27:29.772Z,932.27
2018-04-16T18:29:01.665Z,932.23
2018-04-16T18:30:33.402Z,932.23
2018-04-16T18:32:05.289Z,932.21
2018-04-16T18:36:40.868Z,932.14
2018-04-16T18:38:12.787Z,932.13
2018-04-16T18:39:44.311Z,932.19
2018-04-16T18:41:16.344Z,932.16
2018-04-16T18:42:47.974Z,932.25
2018-04-16T18:44:19.752Z,932.25
2018-04-16T18:45:51.579Z,932.28
2018-04-16T18:47:23.381Z,932.26
2018-04-16T18:48:55.198Z,932.24
2018-04-16T18:50:27.217Z,932.10
2018-04-16T18:51:59.032Z,932.04
2018-04-16T18:53:31.330Z,932.08
2018-04-16T18:55:02.766Z,932.19
2018-04-16T18:56:34.884Z,932.20
2018-04-16T18:58:06.093Z,932.12
2018-04-16T18:59:38.440Z,932.18
2018-04-16T19:01:10.733Z,932.13
2018-04-16T19:02:41.541Z,932.05
2018-04-16T19:04:13.748Z,932.04
2018-04-16T19:05:45.241Z,932.07
2018-04-16T19:07:17.049Z,932.08
2018-04-16T19:08:49.009Z,932.08
2018-04-16T19:10:20.725Z,932.14
2018-04-16T19:11:52.812Z,932.13
2018-04-16T19:13:24.466Z,932.14
2018-04-16T19:14:56.172Z,932.11
2018-04-16T19:16:27.984Z,932.22
2018-04-16T19:17:59.804Z,932.17
2018-04-16T19:19:31.736Z,932.22
2018-04-16T19:21:03.475Z,932.21
2018-04-16T19:22:35.147Z,932.17
2018-04-16T19:24:06.965Z,932.23
2018-04-16T19:27:10.851Z,932.19
2018-04-16T19:28:42.409Z,932.19
2018-04-16T19:30:14.225Z,932.15
2018-04-16T19:31:46.042Z,932.13
2018-04-16T19:36:21.680Z,932.13
2018-04-16T19:37:53.506Z,932.07
2018-04-16T19:39:25.176Z,932.09
2018-04-16T19:40:56.933Z,932.08
2018-04-16T19:42:29.028Z,932.16
2018-04-16T19:44:00.567Z,932.17
2018-04-16T19:45:32.377Z,932.11
2018-04-16T19:47:04.193Z,932.04
2018-04-16T19:48:36.411Z,931.95
2018-04-16T19:51:39.634Z,932.02
2018-04-16T19:53:11.683Z,932.08
2018-04-16T19:54:43.363Z,932.12
2018-04-16T19:57:47.614Z,932.04
2018-04-16T19:59:18.702Z,932.06
2018-04-16T20:02:22.330Z,932.00
2018-04-16T20:03:54.668Z,932.01
2018-04-16T20:05:26.465Z,932.04
2018-04-16T20:08:29.608Z,932.11
2018-04-16T20:10:01.395Z,932.02
2018-04-16T20:11:33.209Z,932.01
2018-04-16T20:13:05.022Z,932.03
2018-04-16T20:14:36.935Z,932.05
2018-04-16T20:16:08.648Z,932.02
2018-04-16T20:17:40.663Z,932.05
2018-04-16T20:19:12.577Z,932.10
2018-04-16T20:20:44.088Z,932.12
2018-04-16T20:22:15.899Z,932.13
2018-04-16T20:23:47.818Z,932.10
2018-04-16T20:25:20.049Z,932.05
2018-04-16T20:26:51.441Z,932.07
2018-04-16T20:28:23.203Z,932.14
2018-04-16T20:29:54.966Z,932.11
2018-04-16T20:31:26.779Z,932.12
2018-04-16T20:34:30.523Z,932.12
2018-04-16T20:36:02.247Z,932.10
2018-04-16T20:37:34.268Z,932.12
2018-04-16T20:39:05.844Z,932.15
2018-04-16T20:40:37.660Z,932.11
2018-04-16T20:42:09.491Z,932.15